createdAt,value
2018-12-22T00:01:53.969Z,96131.89
2018-12-22T00:04:22.538Z,96136.92
2018-12-22T00:06:51.235Z,96146.02
2018-12-22T00:09:19.952Z,96156.66
2018-12-22T00:11:48.637Z,96157.13
2018-12-22T00:14:17.232Z,96169.94
2018-12-22T00:16:46.015Z,96154.64
2018-12-22T00:19:14.604Z,96161.08
2018-12-22T00:21:43.269Z,96169.41
2018-12-22T00:24:12.014Z,96102.84
2018-12-22T00:26:40.566Z,96195.30
2018-12-22T00:29:09.269Z,96190.44
2018-12-22T00:31:38.132Z,96173.74
2018-12-22T00:34:07.314Z,96185.44
2018-12-22T00:36:35.969Z,96181.07
2018-12-22T00:39:06.510Z,96189.29
2018-12-22T00:41:35.147Z,96176.55
2018-12-22T00:44:03.894Z,96167.65
2018-12-22T00:46:32.501Z,96166.59
2018-12-22T00:49:01.024Z,96159.13
2018-12-22T00:51:29.541Z,96150.58
2018-12-22T00:53:58.134Z,96152.13
2018-12-22T00:56:26.906Z,96107.84
2018-12-22T00:58:55.554Z,96147.75
2018-12-22T01:01:24.156Z,96141.42
2018-12-22T01:03:52.768Z,96141.08
2018-12-22T01:06:21.296Z,96139.86
2018-12-22T01:08:49.844Z,96141.45
2018-12-22T01:11:18.389Z,96129.02
2018-12-22T01:13:47.185Z,96129.33
2018-12-22T01:16:15.953Z,96124.64
2018-12-22T01:18:44.609Z,96122.33
2018-12-22T01:21:13.140Z,96123.48
2018-12-22T01:23:41.708Z,96123.60
2018-12-22T01:26:10.291Z,96132.16
2018-12-22T01:28:39.538Z,96124.48
2018-12-22T01:31:08.519Z,96130.99
2018-12-22T01:33:37.108Z,96127.83
2018-12-22T01:36:05.623Z,96124.75
2018-12-22T01:38:34.121Z,96107.61
2018-12-22T01:41:02.852Z,96112.71
2018-12-22T01:43:31.489Z,96107.94
2018-12-22T01:46:00.162Z,96107.94
2018-12-22T01:48:28.714Z,96106.08
2018-12-22T01:50:57.266Z,96104.50
2018-12-22T01:53:25.892Z,96100.72
2018-12-22T01:55:54.419Z,96103.75
2018-12-22T01:58:22.970Z,96098.48
2018-12-22T02:00:51.507Z,96109.75
2018-12-22T02:03:20.031Z,96097.08
2018-12-22T02:05:48.673Z,96093.64
2018-12-22T02:08:17.258Z,96092.48
2018-12-22T02:10:45.859Z,96090.16
2018-12-22T02:13:14.465Z,96084.44
2018-12-22T02:15:43.105Z,96087.80
2018-12-22T02:18:11.698Z,96087.72
2018-12-22T02:20:40.282Z,96084.59
2018-12-22T02:23:08.875Z,96086.33
2018-12-22T02:25:37.447Z,96091.67
2018-12-22T02:28:06.020Z,96084.20
2018-12-22T02:30:34.604Z,96078.59
2018-12-22T02:33:03.215Z,96074.92
2018-12-22T02:35:31.856Z,96056.66
2018-12-22T02:38:00.809Z,96059.59
2018-12-22T02:40:29.380Z,96061.18
2018-12-22T02:42:57.999Z,96059.00
2018-12-22T02:45:26.653Z,96060.31
2018-12-22T02:47:55.192Z,96058.58
2018-12-22T02:50:24.391Z,96050.22
2018-12-22T02:52:52.974Z,96041.00
2018-12-22T02:55:21.994Z,96039.99
2018-12-22T02:57:50.741Z,96028.58
2018-12-22T03:00:19.441Z,96027.61
2018-12-22T03:02:47.997Z,96036.59
2018-12-22T03:05:16.852Z,96033.47
2018-12-22T03:07:45.399Z,96042.90
2018-12-22T03:10:14.034Z,96036.39
2018-12-22T03:12:42.562Z,96042.78
2018-12-22T03:15:11.126Z,96035.09
2018-12-22T03:17:39.677Z,96029.62
2018-12-22T03:20:08.360Z,96022.45
2018-12-22T03:22:37.002Z,96038.83
2018-12-22T03:25:05.769Z,96033.12
2018-12-22T03:27:34.335Z,96030.57
2018-12-22T03:30:06.282Z,96035.88
2018-12-22T03:32:34.859Z,96024.55
2018-12-22T03:35:03.528Z,96020.67
2018-12-22T03:37:32.106Z,96023.61
2018-12-22T03:40:00.698Z,96015.88
2018-12-22T03:42:29.342Z,96028.22
2018-12-22T03:44:57.906Z,96019.52
2018-12-22T03:47:26.508Z,96014.83
2018-12-22T03:49:55.042Z,96013.51
2018-12-22T03:52:23.600Z,96006.70
2018-12-22T03:54:52.138Z,96010.22
2018-12-22T03:57:20.693Z,96009.84
2018-12-22T03:59:49.538Z,96012.28
2018-12-22T04:02:18.104Z,95991.31
2018-12-22T04:04:46.767Z,95993.33
2018-12-22T04:07:15.902Z,95996.03
2018-12-22T04:09:44.657Z,95995.61
2018-12-22T04:12:13.233Z,95999.63
2018-12-22T04:14:42.395Z,96008.41
2018-12-22T04:17:11.060Z,96002.92
2018-12-22T04:19:39.686Z,95995.10
2018-12-22T04:22:08.222Z,96003.11
2018-12-22T04:24:36.862Z,95998.23
2018-12-22T04:27:05.405Z,95989.88
2018-12-22T04:29:34.415Z,96002.98
2018-12-22T04:32:03.081Z,96005.11
2018-12-22T04:34:31.635Z,95998.16
2018-12-22T04:37:00.176Z,96010.65
2018-12-22T04:39:28.801Z,96010.41
2018-12-22T04:41:57.371Z,96002.91
2018-12-22T04:44:25.904Z,96013.19
2018-12-22T04:46:54.505Z,96012.77
2018-12-22T04:49:23.043Z,96017.14
2018-12-22T04:51:51.606Z,96014.20
2018-12-22T04:54:20.161Z,96015.09
2018-12-22T04:56:48.776Z,96014.73
2018-12-22T04:59:17.295Z,96015.23
2018-12-22T05:01:45.841Z,96020.02
2018-12-22T05:04:14.449Z,96008.27
2018-12-22T05:06:42.983Z,96018.14
2018-12-22T05:09:11.550Z,96023.95
2018-12-22T05:11:40.201Z,96027.14
2018-12-22T05:14:08.764Z,96020.41
2018-12-22T05:16:37.336Z,96028.20
2018-12-22T05:19:05.924Z,96032.68
2018-12-22T05:21:34.433Z,96030.86
2018-12-22T05:24:03.002Z,96029.79
2018-12-22T05:26:31.547Z,96030.11
2018-12-22T05:29:00.094Z,95992.45
2018-12-22T05:31:28.779Z,96034.64
2018-12-22T05:33:57.565Z,96035.23
2018-12-22T05:36:26.109Z,96048.11
2018-12-22T05:38:54.808Z,96035.13
2018-12-22T05:41:23.905Z,96038.64
2018-12-22T05:43:52.523Z,96032.58
2018-12-22T05:46:21.086Z,96032.66
2018-12-22T05:48:49.775Z,96035.70
2018-12-22T05:51:18.336Z,96043.91
2018-12-22T05:53:46.843Z,96049.52
2018-12-22T05:56:15.411Z,96041.72
2018-12-22T05:58:43.998Z,96041.29
2018-12-22T06:01:12.535Z,96027.55
2018-12-22T06:03:41.145Z,96029.15
2018-12-22T06:06:09.877Z,96038.23
2018-12-22T06:08:38.404Z,96051.70
2018-12-22T06:11:06.987Z,96044.23
2018-12-22T06:13:35.823Z,96037.07
2018-12-22T06:16:05.447Z,96040.28
2018-12-22T06:18:34.052Z,96041.59
2018-12-22T06:21:02.715Z,96058.65
2018-12-22T06:23:31.322Z,96056.95
2018-12-22T06:25:59.890Z,96040.94
2018-12-22T06:28:28.507Z,96050.89
2018-12-22T06:30:57.068Z,96073.47
2018-12-22T06:33:25.647Z,96075.14
2018-12-22T06:35:54.239Z,96070.03
2018-12-22T06:38:22.828Z,96075.17
2018-12-22T06:40:51.364Z,96084.84
2018-12-22T06:43:19.949Z,96061.25
2018-12-22T06:45:48.621Z,96046.13
2018-12-22T06:48:17.200Z,96053.74
2018-12-22T06:50:45.787Z,96062.88
2018-12-22T06:53:14.709Z,96060.69
2018-12-22T06:55:43.272Z,96061.34
2018-12-22T06:58:11.838Z,96043.06
2018-12-22T07:00:40.369Z,96029.30
2018-12-22T07:03:08.929Z,96035.70
2018-12-22T07:05:37.525Z,96042.79
2018-12-22T07:08:06.090Z,96040.73
2018-12-22T07:10:34.723Z,96051.45
2018-12-22T07:13:03.308Z,96056.42
2018-12-22T07:15:31.884Z,96064.40
2018-12-22T07:18:00.476Z,96062.86
2018-12-22T07:20:29.130Z,96063.96
2018-12-22T07:22:57.798Z,96058.95
2018-12-22T07:25:26.401Z,96060.98
2018-12-22T07:27:55.017Z,96057.81
2018-12-22T07:30:26.272Z,96052.83
2018-12-22T07:32:57.133Z,96055.85
2018-12-22T07:35:24.964Z,96064.72
2018-12-22T07:37:53.520Z,96067.49
2018-12-22T07:40:22.033Z,96072.70
2018-12-22T07:42:50.741Z,96079.85
2018-12-22T07:45:19.398Z,96084.88
2018-12-22T07:47:47.936Z,96092.78
2018-12-22T07:50:16.646Z,96087.45
2018-12-22T07:52:51.619Z,96088.93
2018-12-22T07:55:15.762Z,96095.49
2018-12-22T07:57:44.314Z,96102.35
2018-12-22T08:00:12.891Z,96087.78
2018-12-22T08:02:41.478Z,96104.02
2018-12-22T08:05:10.084Z,96089.53
2018-12-22T08:07:38.598Z,96091.57
2018-12-22T08:10:07.731Z,96098.17
2018-12-22T08:12:36.341Z,96108.03
2018-12-22T08:15:05.170Z,96107.56
2018-12-22T08:17:33.738Z,96100.66
2018-12-22T08:20:02.343Z,96110.27
2018-12-22T08:22:31.001Z,96100.97
2018-12-22T08:24:59.596Z,96099.43
2018-12-22T08:27:28.238Z,96088.05
2018-12-22T08:29:56.934Z,96092.47
2018-12-22T08:32:25.509Z,96093.98
2018-12-22T08:34:54.145Z,96087.23
2018-12-22T08:37:22.734Z,96088.98
2018-12-22T08:39:51.293Z,96086.00
2018-12-22T08:42:19.849Z,96094.45
2018-12-22T08:44:48.493Z,96088.03
2018-12-22T08:47:17.068Z,96082.52
2018-12-22T08:49:45.674Z,96088.94
2018-12-22T08:52:14.350Z,96089.05
2018-12-22T08:54:42.948Z,96098.33
2018-12-22T08:57:11.520Z,96092.69
2018-12-22T08:59:40.087Z,96085.00
2018-12-22T09:02:08.676Z,96087.33
2018-12-22T09:04:37.236Z,96083.05
2018-12-22T09:07:05.816Z,96077.63
2018-12-22T09:09:34.469Z,96062.08
2018-12-22T09:12:03.081Z,96063.75
2018-12-22T09:14:31.640Z,96074.64
2018-12-22T09:17:00.221Z,96070.72
2018-12-22T09:19:28.765Z,96062.52
2018-12-22T09:21:57.338Z,96069.20
2018-12-22T09:24:26.004Z,96052.50
2018-12-22T09:26:54.641Z,96047.65
2018-12-22T09:29:23.200Z,96038.90
2018-12-22T09:31:51.790Z,96026.25
2018-12-22T09:34:20.343Z,96022.70
2018-12-22T09:36:48.893Z,96026.17
2018-12-22T09:39:17.528Z,96027.28
2018-12-22T09:41:46.113Z,96022.78
2018-12-22T09:44:14.744Z,96030.36
2018-12-22T09:46:43.406Z,96004.91
2018-12-22T09:49:11.996Z,96011.16
2018-12-22T09:51:40.568Z,96008.20
2018-12-22T09:54:09.099Z,95996.96
2018-12-22T09:56:37.684Z,95993.55
2018-12-22T09:59:06.540Z,95994.45
2018-12-22T10:01:35.301Z,95984.23
2018-12-22T10:04:03.876Z,95978.64
2018-12-22T10:06:32.391Z,95973.55
2018-12-22T10:09:00.967Z,95964.94
2018-12-22T10:11:29.606Z,95953.37
2018-12-22T10:13:58.157Z,95954.75
2018-12-22T10:16:26.764Z,95943.97
2018-12-22T10:18:55.270Z,95943.06
2018-12-22T10:21:23.785Z,95941.26
2018-12-22T10:23:52.355Z,95952.67
2018-12-22T10:26:21.029Z,95934.94
2018-12-22T10:28:49.628Z,95932.19
2018-12-22T10:31:18.434Z,95935.02
2018-12-22T10:33:47.131Z,95942.03
2018-12-22T10:36:15.764Z,95929.45
2018-12-22T10:38:44.336Z,95913.88
2018-12-22T10:41:12.853Z,95906.90
2018-12-22T10:43:41.387Z,95920.84
2018-12-22T10:46:09.992Z,95906.23
2018-12-22T10:48:38.626Z,95904.36
2018-12-22T10:51:07.236Z,95905.41
2018-12-22T10:53:35.794Z,95902.20
2018-12-22T10:56:04.343Z,95896.88
2018-12-22T10:58:32.930Z,95907.05
2018-12-22T11:01:01.465Z,95895.33
2018-12-22T11:03:32.031Z,95888.91
2018-12-22T11:06:00.694Z,95890.53
2018-12-22T11:08:29.265Z,95883.83
2018-12-22T11:10:57.828Z,95869.73
2018-12-22T11:13:26.415Z,95863.03
2018-12-22T11:15:54.985Z,95862.56
2018-12-22T11:18:23.561Z,95842.34
2018-12-22T11:20:52.196Z,95847.15
2018-12-22T11:23:20.864Z,95849.77
2018-12-22T11:25:49.421Z,95851.61
2018-12-22T11:28:17.952Z,95850.50
2018-12-22T11:30:46.782Z,95835.03
2018-12-22T11:33:15.320Z,95849.16
2018-12-22T11:35:43.846Z,95835.01
2018-12-22T11:38:12.431Z,95828.37
2018-12-22T11:40:41.053Z,95831.56
2018-12-22T11:43:09.703Z,95828.62
2018-12-22T11:45:38.373Z,95820.66
2018-12-22T11:48:21.849Z,95819.55
2018-12-22T11:50:50.408Z,95819.84
2018-12-22T11:53:19.001Z,95818.47
2018-12-22T11:55:47.577Z,95819.56
2018-12-22T11:58:16.212Z,95838.73
2018-12-22T12:00:44.774Z,95825.67
2018-12-22T12:03:13.306Z,95828.86
2018-12-22T12:05:42.560Z,95832.84
2018-12-22T12:08:11.094Z,95826.13
2018-12-22T12:10:39.627Z,95823.67
2018-12-22T12:13:08.160Z,95827.50
2018-12-22T12:15:43.002Z,95816.59
2018-12-22T12:18:55.816Z,95816.91
2018-12-22T12:21:24.352Z,95821.99
2018-12-22T12:23:52.902Z,95811.95
2018-12-22T12:26:21.467Z,95808.52
2018-12-22T12:28:49.972Z,95816.02
2018-12-22T14:05:33.449Z,95777.86
2018-12-22T14:08:01.999Z,95774.12
2018-12-22T14:10:30.553Z,95767.77
2018-12-22T14:12:59.132Z,95764.55
2018-12-22T14:15:27.829Z,95773.63
2018-12-22T14:19:03.848Z,95775.19
2018-12-22T14:21:32.433Z,95772.03
2018-12-22T14:24:14.514Z,95765.13
2018-12-22T14:26:43.204Z,95766.96
2018-12-22T14:29:11.764Z,95768.03
2018-12-22T14:31:40.465Z,95767.75
2018-12-22T14:34:13.582Z,95766.41
2018-12-22T14:36:42.277Z,95761.04
2018-12-22T14:39:10.914Z,95758.92
2018-12-22T14:41:39.655Z,95760.23
2018-12-22T14:44:08.271Z,95764.49
2018-12-22T14:46:36.847Z,95766.89
2018-12-22T14:49:05.420Z,95767.65
2018-12-22T14:51:33.992Z,95765.24
2018-12-22T14:54:02.522Z,95761.26
2018-12-22T14:56:37.074Z,95770.52
2018-12-22T14:59:06.249Z,95772.11
2018-12-22T15:01:34.811Z,95760.41
2018-12-22T15:04:03.392Z,95766.95
2018-12-22T15:06:31.987Z,95778.09
2018-12-22T15:09:00.569Z,95787.92
2018-12-22T15:11:29.169Z,95778.11
2018-12-22T15:13:57.722Z,95779.39
2018-12-22T15:16:26.307Z,95782.59
2018-12-22T15:18:55.027Z,95777.09
2018-12-22T15:21:23.606Z,95786.36
2018-12-22T15:23:52.168Z,95783.39
2018-12-22T15:26:20.721Z,95792.42
2018-12-22T15:28:49.286Z,95792.22
2018-12-22T15:31:17.905Z,95787.72
2018-12-22T15:33:46.479Z,95774.13
2018-12-22T15:36:15.086Z,95772.00
2018-12-22T15:38:43.639Z,95770.42
2018-12-22T15:41:12.213Z,95754.52
2018-12-22T15:43:40.773Z,95757.97
2018-12-22T15:46:09.335Z,95750.25
2018-12-22T15:48:37.939Z,95745.47
2018-12-22T15:51:06.517Z,95755.33
2018-12-22T15:53:35.037Z,95760.12
2018-12-22T15:56:03.613Z,95765.42
2018-12-22T15:58:32.149Z,95770.73
2018-12-22T16:01:01.636Z,95780.25
2018-12-22T16:03:30.292Z,95771.95
2018-12-22T16:05:58.868Z,95774.30
2018-12-22T16:08:27.489Z,95773.52
2018-12-22T16:10:56.083Z,95776.23
2018-12-22T16:13:24.687Z,95783.19
2018-12-22T16:15:53.617Z,95769.91
2018-12-22T16:18:22.198Z,95776.27
2018-12-22T16:20:50.753Z,95764.35
2018-12-22T16:23:19.310Z,95761.19
2018-12-22T16:25:47.906Z,95761.70
2018-12-22T16:28:20.752Z,95764.61
2018-12-22T16:30:54.453Z,95757.72
2018-12-22T16:33:23.215Z,95755.08
2018-12-22T16:35:51.728Z,95752.13
2018-12-22T16:38:20.327Z,95764.34
2018-12-22T16:40:48.943Z,95768.02
2018-12-22T16:43:18.503Z,95768.03
2018-12-22T16:45:49.399Z,95763.28
2018-12-22T16:48:19.073Z,95769.11
2018-12-22T16:50:48.048Z,95770.14
2018-12-22T16:53:16.639Z,95770.64
2018-12-22T16:55:45.232Z,95780.22
2018-12-22T16:58:24.138Z,95780.22
2018-12-22T17:00:58.071Z,95773.08
2018-12-22T17:03:26.771Z,95774.39
2018-12-22T17:05:55.338Z,95774.66
2018-12-22T17:08:23.908Z,95778.28
2018-12-22T17:10:56.680Z,95784.56
2018-12-22T17:13:25.365Z,95790.09
2018-12-22T17:15:56.816Z,95787.19
2018-12-22T17:18:25.772Z,95784.27
2018-12-22T17:21:01.888Z,95774.39
2018-12-22T17:23:39.504Z,95785.23
2018-12-22T17:26:09.438Z,95783.82
2018-12-22T17:28:38.028Z,95790.45
2018-12-22T17:31:06.635Z,95793.34
2018-12-22T17:33:36.294Z,95799.38
2018-12-22T17:36:05.478Z,95799.34
2018-12-22T17:38:34.028Z,95793.06
2018-12-22T17:41:02.959Z,95798.63
2018-12-22T17:43:31.850Z,95791.48
2018-12-22T17:46:00.560Z,95796.21
2018-12-22T17:48:29.184Z,95794.15
2018-12-22T17:50:57.736Z,95796.52
2018-12-22T17:53:26.289Z,95792.45
2018-12-22T17:55:54.889Z,95777.27
2018-12-22T17:58:23.595Z,95775.44
2018-12-22T18:00:52.245Z,95764.58
2018-12-22T18:03:27.372Z,95761.27
2018-12-22T18:05:52.837Z,95763.56
2018-12-22T18:08:21.394Z,95760.30
2018-12-22T18:10:50.860Z,95759.72
2018-12-22T18:13:19.434Z,95763.49
2018-12-22T18:15:48.101Z,95750.84
2018-12-22T18:18:16.732Z,95754.55
2018-12-22T18:20:45.297Z,95748.75
2018-12-22T18:23:13.926Z,95755.66
2018-12-22T18:25:42.561Z,95690.45
2018-12-22T18:28:11.479Z,95762.28
2018-12-22T18:30:40.169Z,95770.84
2018-12-22T18:33:08.694Z,95785.83
2018-12-22T18:35:37.253Z,95787.38
2018-12-22T18:38:05.847Z,95778.61
2018-12-22T18:40:34.435Z,95789.77
2018-12-22T18:43:03.138Z,95788.21
2018-12-22T18:45:31.761Z,95773.00
2018-12-22T18:48:00.297Z,95779.64
2018-12-22T18:50:29.002Z,95770.61
2018-12-22T18:52:57.553Z,95771.98
2018-12-22T18:55:26.097Z,95779.98
2018-12-22T18:57:56.592Z,95769.50
2018-12-22T19:00:26.126Z,95767.68
2018-12-22T19:02:54.708Z,95783.33
2018-12-22T19:05:23.665Z,95804.28
2018-12-22T19:07:55.351Z,95787.29
2018-12-22T19:10:29.058Z,95789.42
2018-12-22T19:12:57.701Z,95794.28
2018-12-22T19:15:26.264Z,95793.76
2018-12-22T19:17:54.796Z,95798.31
2018-12-22T19:20:27.411Z,95797.33
2018-12-22T19:22:55.971Z,95799.43
2018-12-22T19:25:24.792Z,95792.58
2018-12-22T19:27:53.877Z,95799.45
2018-12-22T19:30:23.374Z,95807.38
2018-12-22T19:32:51.948Z,95800.31
2018-12-22T19:35:20.521Z,95794.86
2018-12-22T19:37:49.098Z,95797.30
2018-12-22T19:40:17.674Z,95800.66
2018-12-22T19:42:46.266Z,95791.45
2018-12-22T19:45:14.851Z,95798.85
2018-12-22T19:47:43.500Z,95800.18
2018-12-22T19:50:12.080Z,95796.50
2018-12-22T19:52:40.645Z,95796.78
2018-12-22T19:55:09.238Z,95799.72
2018-12-22T19:57:37.766Z,95788.68
2018-12-22T20:00:13.585Z,95800.70
2018-12-22T20:02:42.158Z,95799.72
2018-12-22T20:05:10.834Z,95726.31
2018-12-22T20:07:39.365Z,95795.43
2018-12-22T20:10:09.194Z,95781.73
2018-12-22T20:12:37.762Z,95786.39
2018-12-22T20:15:06.630Z,95779.33
2018-12-22T20:17:35.541Z,95780.40
2018-12-22T20:20:04.470Z,95777.80
2018-12-22T20:22:33.115Z,95784.48
2018-12-22T20:25:01.699Z,95785.08
2018-12-22T20:27:30.264Z,95791.70
2018-12-22T20:29:58.899Z,95789.25
2018-12-22T20:32:27.428Z,95800.13
2018-12-22T20:34:55.992Z,95129.57
2018-12-22T20:37:24.784Z,95793.73
2018-12-22T20:39:53.912Z,95793.73
2018-12-22T20:42:22.596Z,95794.70
2018-12-22T20:44:51.159Z,95797.14
2018-12-22T20:47:19.717Z,95790.74
2018-12-22T20:49:48.419Z,95798.64
2018-12-22T20:52:16.995Z,95803.88
2018-12-22T20:54:45.916Z,95807.56
2018-12-22T20:57:14.605Z,95821.23
2018-12-22T20:59:43.182Z,95638.36
2018-12-22T21:02:11.810Z,95813.20
2018-12-22T21:04:40.392Z,95822.05
2018-12-22T21:07:08.926Z,95814.34
2018-12-22T21:09:37.486Z,95802.55
2018-12-22T21:12:06.088Z,95796.86
2018-12-22T21:14:34.655Z,95792.11
2018-12-22T21:17:03.223Z,95793.44
2018-12-22T21:19:31.786Z,95785.77
2018-12-22T21:22:00.350Z,95797.41
2018-12-22T21:24:28.921Z,95803.05
2018-12-22T21:26:57.508Z,95805.33
2018-12-22T21:29:26.064Z,95799.50
2018-12-22T21:31:55.229Z,95788.64
2018-12-22T21:34:28.284Z,95788.58
2018-12-22T21:36:54.323Z,95791.45
2018-12-22T21:39:22.880Z,95788.69
2018-12-22T21:41:51.484Z,95790.89
2018-12-22T21:44:20.334Z,95785.85
2018-12-22T21:46:48.870Z,95787.95
2018-12-22T21:49:17.554Z,95779.20
2018-12-22T21:51:46.123Z,95778.94
2018-12-22T21:54:14.709Z,95778.67
2018-12-22T21:56:43.260Z,95784.22
2018-12-22T21:59:11.829Z,95784.73
2018-12-22T22:01:40.362Z,95786.67
2018-12-22T22:04:08.906Z,95779.61
2018-12-22T22:06:37.935Z,95577.41
2018-12-22T22:09:06.918Z,95777.02
2018-12-22T22:11:35.617Z,95770.13
2018-12-22T22:14:04.130Z,95769.36
2018-12-22T22:16:32.735Z,95765.38
2018-12-22T22:19:01.291Z,95770.44
2018-12-22T22:21:29.858Z,95766.35
2018-12-22T22:23:58.426Z,95768.22
2018-12-22T22:26:26.981Z,95761.64
2018-12-22T22:28:55.516Z,95753.16
2018-12-22T22:31:24.073Z,95755.83
2018-12-22T22:33:52.590Z,95756.73
2018-12-22T22:36:21.113Z,95753.84
2018-12-22T22:38:49.682Z,95770.04
2018-12-22T22:41:18.237Z,95766.05
2018-12-22T22:43:46.813Z,95772.91
2018-12-22T22:46:15.369Z,95766.56
2018-12-22T22:48:43.953Z,95756.20
2018-12-22T22:51:12.630Z,95757.52
2018-12-22T22:53:41.197Z,95742.30
2018-12-22T22:56:09.775Z,95748.34
2018-12-22T22:58:38.317Z,95752.91
2018-12-22T23:01:06.992Z,95745.03
2018-12-22T23:03:35.569Z,95751.11
2018-12-22T23:06:04.167Z,95746.05
2018-12-22T23:08:32.712Z,95753.17
2018-12-22T23:11:01.362Z,95757.91
2018-12-22T23:13:29.973Z,95752.58
2018-12-22T23:15:58.588Z,95735.84
2018-12-22T23:18:27.158Z,95736.22
2018-12-22T23:20:55.727Z,95734.25
2018-12-22T23:23:24.259Z,95729.28
2018-12-22T23:25:52.789Z,95733.62
2018-12-22T23:28:21.299Z,95736.56
2018-12-22T23:30:49.918Z,95748.84
2018-12-22T23:33:18.809Z,95743.54
2018-12-22T23:35:47.345Z,95742.20
2018-12-22T23:38:15.896Z,95743.56
2018-12-22T23:40:44.468Z,95753.64
2018-12-22T23:43:13.029Z,95744.34
2018-12-22T23:45:41.566Z,95737.94
2018-12-22T23:48:10.142Z,95734.19
2018-12-22T23:50:38.726Z,95513.70
2018-12-22T23:53:07.315Z,95728.38
2018-12-22T23:55:35.900Z,95569.64
2018-12-22T23:58:04.507Z,95736.11
